Time;durP1;ratioP1;P1;durP2;ratioP2;P2;SDS_P1;SDS_P2;PMS_P1;PMS_P2;Temp;Humidity;BMP_temperature;BMP_pressure;BME280_temperature;BME280_humidity;BME280_pressure;Samples;Min_cycle;Max_cycle;Signal;HPM_P1;HPM_P2
2021/07/30 00:01:17;;;;;;;24.00;22.30;;;;;;;;;;5016053;28;20976;-92
2021/07/30 00:03:45;;;;;;;24.30;22.70;;;;;;;;;;5017699;28;20848;-91
2021/07/30 00:06:13;;;;;;;25.27;23.57;;;;;;;;;;5016123;28;20432;-91
2021/07/30 00:08:40;;;;;;;24.67;22.97;;;;;;;;;;5016735;28;20411;-91
2021/07/30 00:11:08;;;;;;;26.43;24.27;;;;;;;;;;5017204;28;20411;-92
2021/07/30 00:13:35;;;;;;;24.30;22.70;;;;;;;;;;5017171;28;20782;-92
2021/07/30 00:16:03;;;;;;;24.40;22.33;;;;;;;;;;5016975;28;20854;-92
2021/07/30 00:18:30;;;;;;;23.57;22.10;;;;;;;;;;5015710;28;20431;-91
2021/07/30 00:20:59;;;;;;;24.97;22.77;;;;;;;;;;5015612;28;20489;-91
2021/07/30 00:23:27;;;;;;;23.37;21.77;;;;;;;;;;5016829;28;20408;-92
2021/07/30 00:25:54;;;;;;;23.50;21.80;;;;;;;;;;5016471;28;20412;-91
2021/07/30 00:28:22;;;;;;;23.87;22.27;;;;;;;;;;5015820;28;20444;-91
2021/07/30 00:30:49;;;;;;;24.47;22.93;;;;;;;;;;5016629;28;20420;-91
2021/07/30 00:33:16;;;;;;;23.70;22.20;;;;;;;;;;5016310;28;20416;-91
2021/07/30 00:35:44;;;;;;;23.77;22.20;;;;;;;;;;5016571;28;20428;-91
2021/07/30 00:38:12;;;;;;;23.00;21.50;;;;;;;;;;5016776;28;20443;-92
2021/07/30 00:40:40;;;;;;;23.43;21.80;;;;;;;;;;5017199;28;20987;-92
2021/07/30 00:43:07;;;;;;;24.20;22.20;;;;;;;;;;5016550;28;20447;-92
2021/07/30 00:45:35;;;;;;;23.60;22.00;;;;;;;;;;5016155;28;20431;-91
2021/07/30 00:48:02;;;;;;;23.67;21.80;;;;;;;;;;5016323;28;20457;-91
2021/07/30 00:50:29;;;;;;;24.37;22.50;;;;;;;;;;5016074;28;20460;-91
2021/07/30 00:52:58;;;;;;;25.87;23.67;;;;;;;;;;5015204;28;20419;-90
2021/07/30 00:55:27;;;;;;;24.03;22.43;;;;;;;;;;5016250;28;20777;-91
2021/07/30 00:57:54;;;;;;;24.80;23.03;;;;;;;;;;5015978;28;20937;-91
2021/07/30 01:00:22;;;;;;;23.13;21.50;;;;;;;;;;5015445;28;20484;-91
2021/07/30 01:02:49;;;;;;;23.50;21.80;;;;;;;;;;5016094;28;20444;-91
2021/07/30 01:05:17;;;;;;;23.40;21.80;;;;;;;;;;5015055;28;20474;-92
2021/07/30 01:07:44;;;;;;;25.07;23.20;;;;;;;;;;5015784;28;20791;-91
2021/07/30 01:10:12;;;;;;;23.60;22.00;;;;;;;;;;5015723;28;20427;-91
2021/07/30 01:12:41;;;;;;;23.03;21.43;;;;;;;;;;5015848;28;20429;-91
2021/07/30 01:15:08;;;;;;;23.33;21.67;;;;;;;;;;5016083;28;20437;-91
2021/07/30 01:17:36;;;;;;;24.10;22.27;;;;;;;;;;5016218;28;20424;-91
2021/07/30 01:20:04;;;;;;;23.60;21.83;;;;;;;;;;5015430;28;20455;-91
2021/07/30 01:22:32;;;;;;;24.00;22.37;;;;;;;;;;5014422;28;20504;-91
2021/07/30 01:25:01;;;;;;;24.43;22.70;;;;;;;;;;5015850;28;20408;-91
2021/07/30 01:27:29;;;;;;;24.43;22.63;;;;;;;;;;5015374;28;20458;-91
2021/07/30 01:29:56;;;;;;;24.13;22.20;;;;;;;;;;5014552;28;20434;-91
2021/07/30 01:32:23;;;;;;;23.23;21.53;;;;;;;;;;5015332;28;20438;-91
2021/07/30 01:34:51;;;;;;;23.83;22.13;;;;;;;;;;5015983;28;20890;-91
2021/07/30 01:37:18;;;;;;;23.23;21.63;;;;;;;;;;5015433;28;20430;-90
2021/07/30 01:39:46;;;;;;;23.20;21.80;;;;;;;;;;5014308;28;20419;-91
2021/07/30 01:42:14;;;;;;;23.80;22.20;;;;;;;;;;5015177;28;20502;-90
2021/07/30 01:44:42;;;;;;;22.20;20.80;;;;;;;;;;5016101;28;20435;-90
2021/07/30 01:47:09;;;;;;;24.33;22.67;;;;;;;;;;5015133;28;20479;-91
2021/07/30 01:49:37;;;;;;;23.50;22.00;;;;;;;;;;5014847;28;20948;-91
2021/07/30 01:52:04;;;;;;;23.93;22.37;;;;;;;;;;5015214;28;20415;-91
2021/07/30 01:54:32;;;;;;;23.90;22.00;;;;;;;;;;5015056;28;20432;-91
2021/07/30 01:56:59;;;;;;;24.00;22.20;;;;;;;;;;5014905;28;20444;-91
2021/07/30 01:59:28;;;;;;;24.57;22.47;;;;;;;;;;5014854;28;20464;-91
2021/07/30 02:01:56;;;;;;;23.30;21.60;;;;;;;;;;5014664;28;20459;-91
2021/07/30 02:04:23;;;;;;;24.17;22.47;;;;;;;;;;5015014;28;20445;-91
2021/07/30 02:06:50;;;;;;;25.17;22.90;;;;;;;;;;5015042;28;20437;-91
2021/07/30 02:09:18;;;;;;;24.87;23.10;;;;;;;;;;5014094;28;20466;-91
2021/07/30 02:11:50;;;;;;;23.43;22.00;;;;;;;;;;5013015;28;20464;-91
2021/07/30 02:14:17;;;;;;;23.73;22.23;;;;;;;;;;5014839;28;20488;-91
2021/07/30 02:16:46;;;;;;;24.40;22.53;;;;;;;;;;5014577;28;20407;-91
2021/07/30 02:19:13;;;;;;;24.57;22.70;;;;;;;;;;5014471;28;20415;-91
2021/07/30 02:21:41;;;;;;;23.83;22.23;;;;;;;;;;5013591;28;20505;-91
2021/07/30 02:24:08;;;;;;;24.07;22.67;;;;;;;;;;5014511;28;20423;-91
2021/07/30 02:26:36;;;;;;;21.80;20.50;;;;;;;;;;5014901;28;20463;-91
2021/07/30 02:29:04;;;;;;;23.20;21.60;;;;;;;;;;5014522;28;20506;-91
2021/07/30 02:31:31;;;;;;;22.17;20.87;;;;;;;;;;5014856;28;20477;-91
2021/07/30 02:34:00;;;;;;;23.40;21.63;;;;;;;;;;5015111;28;20427;-91
2021/07/30 02:36:27;;;;;;;23.43;21.63;;;;;;;;;;5014647;28;20424;-91
2021/07/30 02:38:55;;;;;;;23.03;21.43;;;;;;;;;;5014585;28;20440;-91
2021/07/30 02:41:22;;;;;;;22.37;20.70;;;;;;;;;;5014509;28;20488;-91
2021/07/30 02:43:50;;;;;;;22.40;21.00;;;;;;;;;;5014480;28;20453;-91
2021/07/30 02:46:17;;;;;;;23.73;21.93;;;;;;;;;;5013480;28;20446;-91
2021/07/30 02:48:45;;;;;;;23.20;21.60;;;;;;;;;;5014213;28;20415;-91
2021/07/30 02:51:15;;;;;;;23.63;22.03;;;;;;;;;;5014018;28;20962;-91
2021/07/30 02:53:42;;;;;;;23.20;21.80;;;;;;;;;;5014583;28;20416;-91
2021/07/30 02:56:10;;;;;;;23.43;21.73;;;;;;;;;;5014430;28;20442;-91
2021/07/30 02:58:37;;;;;;;22.90;21.07;;;;;;;;;;5015195;28;20464;-91
2021/07/30 03:01:05;;;;;;;24.00;22.13;;;;;;;;;;5014009;28;20492;-91
2021/07/30 03:03:32;;;;;;;23.40;21.67;;;;;;;;;;5014116;28;20440;-91
2021/07/30 03:06:00;;;;;;;24.87;22.73;;;;;;;;;;5014195;28;20420;-91
2021/07/30 03:08:28;;;;;;;22.33;20.90;;;;;;;;;;5014202;28;20453;-93
2021/07/30 03:10:56;;;;;;;23.13;21.73;;;;;;;;;;5014498;28;20465;-91
2021/07/30 03:13:23;;;;;;;23.37;21.57;;;;;;;;;;5014535;28;20446;-92
2021/07/30 03:15:53;;;;;;;22.67;21.00;;;;;;;;;;5014339;28;20457;-92
2021/07/30 03:18:21;;;;;;;22.20;20.80;;;;;;;;;;5012372;28;20533;-91
2021/07/30 03:20:48;;;;;;;24.00;22.20;;;;;;;;;;5013840;28;20488;-91
2021/07/30 03:23:16;;;;;;;23.00;21.50;;;;;;;;;;5017443;28;20415;-91
2021/07/30 03:25:44;;;;;;;22.90;21.27;;;;;;;;;;5016622;28;20427;-92
2021/07/30 03:28:12;;;;;;;23.50;21.80;;;;;;;;;;5017575;28;20426;-91
2021/07/30 03:30:40;;;;;;;23.30;21.67;;;;;;;;;;5016651;28;20439;-92
2021/07/30 03:33:07;;;;;;;23.27;21.67;;;;;;;;;;5017583;28;20762;-92
2021/07/30 03:35:34;;;;;;;23.53;21.70;;;;;;;;;;5017557;28;20418;-91
2021/07/30 03:38:02;;;;;;;23.13;21.53;;;;;;;;;;5017589;28;20432;-91
2021/07/30 03:40:29;;;;;;;23.43;21.63;;;;;;;;;;5016279;28;20615;-91
2021/07/30 03:42:58;;;;;;;22.63;21.23;;;;;;;;;;5017367;28;20437;-91
2021/07/30 03:45:25;;;;;;;23.00;21.33;;;;;;;;;;5017192;28;20422;-91
2021/07/30 03:47:53;;;;;;;23.33;21.30;;;;;;;;;;5017041;28;20802;-91
2021/07/30 03:50:20;;;;;;;23.57;21.77;;;;;;;;;;5016852;28;20462;-91
2021/07/30 03:52:47;;;;;;;23.10;21.60;;;;;;;;;;5017768;28;20427;-90
2021/07/30 03:55:15;;;;;;;23.53;21.73;;;;;;;;;;5017525;28;20783;-91
2021/07/30 03:57:42;;;;;;;23.03;21.00;;;;;;;;;;5017072;28;20434;-91
2021/07/30 04:00:13;;;;;;;24.30;22.70;;;;;;;;;;5016540;28;20408;-91
2021/07/30 04:02:40;;;;;;;24.47;22.60;;;;;;;;;;5016890;28;20491;-91
2021/07/30 04:05:08;;;;;;;22.10;20.80;;;;;;;;;;5017200;28;20441;-91
2021/07/30 04:07:35;;;;;;;23.30;21.60;;;;;;;;;;5016885;28;20887;-91
2021/07/30 04:10:03;;;;;;;22.77;21.37;;;;;;;;;;5016797;28;20438;-85
2021/07/30 04:12:30;;;;;;;23.20;21.53;;;;;;;;;;5016712;28;20783;-84
2021/07/30 04:14:58;;;;;;;23.10;21.30;;;;;;;;;;5016509;28;20412;-84
2021/07/30 04:17:27;;;;;;;24.10;22.30;;;;;;;;;;5016955;28;20776;-91
2021/07/30 04:19:54;;;;;;;22.77;21.40;;;;;;;;;;5017056;28;20441;-91
2021/07/30 04:22:22;;;;;;;23.57;22.00;;;;;;;;;;5016671;28;20481;-84
2021/07/30 04:24:49;;;;;;;23.43;21.90;;;;;;;;;;5015122;28;20455;-85
2021/07/30 04:27:16;;;;;;;23.17;21.57;;;;;;;;;;5016485;28;20420;-85
2021/07/30 04:29:44;;;;;;;25.10;23.40;;;;;;;;;;5016189;28;20423;-85
2021/07/30 04:32:12;;;;;;;24.27;22.20;;;;;;;;;;5016355;28;20893;-85
2021/07/30 04:34:41;;;;;;;23.17;21.87;;;;;;;;;;5015961;28;20443;-85
2021/07/30 04:37:09;;;;;;;22.90;21.60;;;;;;;;;;5016336;28;20817;-84
2021/07/30 04:39:37;;;;;;;23.63;21.70;;;;;;;;;;5016205;28;20427;-85
2021/07/30 04:42:05;;;;;;;23.40;21.70;;;;;;;;;;5016095;28;20491;-85
2021/07/30 04:44:33;;;;;;;21.60;20.30;;;;;;;;;;5016090;28;20457;-85
2021/07/30 04:47:01;;;;;;;23.70;21.77;;;;;;;;;;5015930;28;20444;-85
2021/07/30 04:49:28;;;;;;;22.83;21.50;;;;;;;;;;5014903;28;20455;-85
2021/07/30 04:51:57;;;;;;;23.00;21.70;;;;;;;;;;5015667;28;20421;-85
2021/07/30 04:54:25;;;;;;;23.07;21.20;;;;;;;;;;5015688;28;20423;-85
2021/07/30 04:56:52;;;;;;;23.80;22.33;;;;;;;;;;5015729;28;20441;-84
2021/07/30 04:59:19;;;;;;;23.37;21.53;;;;;;;;;;5015889;28;20423;-85
2021/07/30 05:01:47;;;;;;;23.10;21.50;;;;;;;;;;5014379;28;20870;-85
2021/07/30 05:04:14;;;;;;;23.10;21.40;;;;;;;;;;5015745;28;20882;-85
2021/07/30 05:06:41;;;;;;;23.73;21.90;;;;;;;;;;5015469;28;20429;-86
2021/07/30 05:09:10;;;;;;;24.03;22.53;;;;;;;;;;5015748;28;20424;-85
2021/07/30 05:11:37;;;;;;;23.03;21.53;;;;;;;;;;5015333;28;20422;-85
2021/07/30 05:14:05;;;;;;;22.23;20.80;;;;;;;;;;5015722;28;20420;-85
2021/07/30 05:16:32;;;;;;;24.60;22.83;;;;;;;;;;5015278;28;20455;-85
2021/07/30 05:19:00;;;;;;;24.27;22.40;;;;;;;;;;5015508;28;20408;-86
2021/07/30 05:21:28;;;;;;;21.60;20.23;;;;;;;;;;5015486;28;20455;-85
2021/07/30 05:23:55;;;;;;;22.77;21.27;;;;;;;;;;5015192;28;20438;-85
2021/07/30 05:26:24;;;;;;;21.60;20.20;;;;;;;;;;5015035;28;20403;-85
2021/07/30 05:28:51;;;;;;;23.73;21.70;;;;;;;;;;5015347;28;20794;-85
2021/07/30 05:31:19;;;;;;;23.73;22.17;;;;;;;;;;5015286;28;20778;-85
2021/07/30 05:33:47;;;;;;;23.00;21.20;;;;;;;;;;5015086;28;20453;-84
2021/07/30 05:36:15;;;;;;;21.50;19.90;;;;;;;;;;5015207;28;20421;-85
2021/07/30 05:38:43;;;;;;;22.70;20.90;;;;;;;;;;5014977;28;20418;-85
2021/07/30 05:41:11;;;;;;;21.60;20.13;;;;;;;;;;5014838;28;20448;-85
2021/07/30 05:43:40;;;;;;;22.70;21.10;;;;;;;;;;5014972;28;20411;-85
2021/07/30 05:46:07;;;;;;;23.87;21.73;;;;;;;;;;5013489;28;20420;-85
2021/07/30 05:48:35;;;;;;;22.70;20.90;;;;;;;;;;5014615;28;20807;-84
2021/07/30 05:51:02;;;;;;;21.40;20.10;;;;;;;;;;5014410;28;20483;-84
2021/07/30 05:53:29;;;;;;;21.40;19.80;;;;;;;;;;5013814;28;20437;-84
2021/07/30 05:55:57;;;;;;;22.17;20.57;;;;;;;;;;5013942;28;20435;-84
2021/07/30 05:58:24;;;;;;;21.67;20.27;;;;;;;;;;5014865;28;20439;-86
2021/07/30 06:00:53;;;;;;;21.57;20.27;;;;;;;;;;5014498;28;20453;-84
2021/07/30 06:03:20;;;;;;;22.80;21.13;;;;;;;;;;5014252;28;20484;-84
2021/07/30 06:05:48;;;;;;;21.67;20.00;;;;;;;;;;5015189;28;20434;-83
2021/07/30 06:08:15;;;;;;;22.00;20.47;;;;;;;;;;5013778;28;20439;-84
2021/07/30 06:10:42;;;;;;;22.43;21.07;;;;;;;;;;5014003;28;20909;-95
2021/07/30 06:13:10;;;;;;;21.10;19.63;;;;;;;;;;5013167;28;20915;-89
2021/07/30 06:15:37;;;;;;;20.97;19.77;;;;;;;;;;5014897;28;20420;-89
2021/07/30 06:18:06;;;;;;;21.13;19.53;;;;;;;;;;5013512;28;20441;-92
2021/07/30 06:20:33;;;;;;;21.83;20.43;;;;;;;;;;5015218;28;20435;-92
2021/07/30 06:23:01;;;;;;;21.97;20.17;;;;;;;;;;5013733;28;20527;-95
2021/07/30 06:25:28;;;;;;;22.37;20.60;;;;;;;;;;5014637;28;20397;-89
2021/07/30 06:27:56;;;;;;;22.20;20.70;;;;;;;;;;5016477;28;20777;-93
2021/07/30 06:30:23;;;;;;;22.20;20.77;;;;;;;;;;5017407;28;20410;-93
2021/07/30 06:32:51;;;;;;;23.00;21.30;;;;;;;;;;5016455;28;20860;-87
2021/07/30 06:35:20;;;;;;;21.17;19.80;;;;;;;;;;5017164;28;20465;-87
2021/07/30 06:37:48;;;;;;;22.63;20.83;;;;;;;;;;5014915;28;20467;-92
2021/07/30 06:40:15;;;;;;;21.07;19.67;;;;;;;;;;5014780;28;20824;-86
2021/07/30 06:42:43;;;;;;;20.40;19.00;;;;;;;;;;5014345;28;20466;-86
2021/07/30 06:45:10;;;;;;;21.90;19.97;;;;;;;;;;5015071;28;20448;-83
2021/07/30 06:47:38;;;;;;;21.73;19.80;;;;;;;;;;5014045;28;20473;-88
2021/07/30 06:50:07;;;;;;;21.20;19.50;;;;;;;;;;5013771;28;20491;-86
2021/07/30 06:52:35;;;;;;;21.53;19.83;;;;;;;;;;5014540;28;20421;-92
2021/07/30 06:55:03;;;;;;;22.20;20.70;;;;;;;;;;5013205;28;20450;-85
2021/07/30 06:57:30;;;;;;;22.83;20.67;;;;;;;;;;5015110;28;20497;-93
2021/07/30 06:59:58;;;;;;;22.03;20.43;;;;;;;;;;5018364;28;20916;-86
2021/07/30 07:02:26;;;;;;;22.30;20.80;;;;;;;;;;5018138;28;20533;-85
2021/07/30 07:04:53;;;;;;;22.50;21.00;;;;;;;;;;5018066;28;20441;-86
2021/07/30 07:07:21;;;;;;;22.17;20.17;;;;;;;;;;5016884;28;20521;-85
2021/07/30 07:09:50;;;;;;;22.03;20.43;;;;;;;;;;5018108;28;20447;-87
2021/07/30 07:12:17;;;;;;;20.60;19.20;;;;;;;;;;5017882;28;20452;-85
2021/07/30 07:14:44;;;;;;;22.23;20.73;;;;;;;;;;5017966;28;20434;-86
2021/07/30 07:17:12;;;;;;;22.67;20.80;;;;;;;;;;5018139;28;20410;-91
2021/07/30 07:19:39;;;;;;;20.33;19.13;;;;;;;;;;5018419;28;20433;-91
2021/07/30 07:22:07;;;;;;;22.97;21.47;;;;;;;;;;5018079;28;20502;-91
2021/07/30 07:24:34;;;;;;;22.67;21.17;;;;;;;;;;5018158;28;20437;-90
2021/07/30 07:27:03;;;;;;;21.63;20.10;;;;;;;;;;5018021;28;20449;-89
2021/07/30 07:29:31;;;;;;;22.43;20.93;;;;;;;;;;5018166;28;20474;-91
2021/07/30 07:31:59;;;;;;;23.33;21.90;;;;;;;;;;5017916;28;20460;-90
2021/07/30 07:34:26;;;;;;;22.00;20.50;;;;;;;;;;5018134;28;20435;-90
2021/07/30 07:36:54;;;;;;;23.00;21.60;;;;;;;;;;5017849;28;20429;-87
2021/07/30 07:39:21;;;;;;;21.67;20.10;;;;;;;;;;5017756;28;20454;-85
2021/07/30 07:41:49;;;;;;;22.63;20.90;;;;;;;;;;5017586;28;20414;-88
2021/07/30 07:44:18;;;;;;;21.07;19.70;;;;;;;;;;5018384;28;20416;-87
2021/07/30 07:46:46;;;;;;;22.13;20.43;;;;;;;;;;5017408;28;20876;-87
2021/07/30 07:49:14;;;;;;;21.33;19.80;;;;;;;;;;5017272;28;20417;-87
2021/07/30 07:51:41;;;;;;;21.63;20.23;;;;;;;;;;5017465;28;20908;-88
2021/07/30 07:54:09;;;;;;;22.77;21.23;;;;;;;;;;5016177;28;20498;-88
2021/07/30 07:56:36;;;;;;;22.40;21.00;;;;;;;;;;5016178;28;20445;-88
2021/07/30 07:59:04;;;;;;;22.47;20.80;;;;;;;;;;5017156;28;20412;-88
2021/07/30 08:01:32;;;;;;;22.27;20.97;;;;;;;;;;5017191;28;20416;-88
2021/07/30 08:04:00;;;;;;;21.33;20.13;;;;;;;;;;5017089;28;20456;-87
2021/07/30 08:06:27;;;;;;;22.10;20.80;;;;;;;;;;5016962;28;20777;-87
2021/07/30 08:08:54;;;;;;;21.90;20.60;;;;;;;;;;5015644;28;20420;-88
2021/07/30 08:11:22;;;;;;;21.70;20.27;;;;;;;;;;5017092;28;20421;-88
2021/07/30 08:13:50;;;;;;;23.30;21.20;;;;;;;;;;5016792;28;20918;-88
2021/07/30 08:16:17;;;;;;;20.77;19.57;;;;;;;;;;5017113;28;20416;-88
2021/07/30 08:18:46;;;;;;;23.57;21.63;;;;;;;;;;5016924;28;20853;-86
2021/07/30 08:21:13;;;;;;;21.77;20.20;;;;;;;;;;5016795;28;20416;-88
2021/07/30 08:23:41;;;;;;;21.87;20.37;;;;;;;;;;5015711;28;20987;-88
2021/07/30 08:26:08;;;;;;;21.50;20.03;;;;;;;;;;5015759;28;20449;-88
2021/07/30 08:28:35;;;;;;;21.57;19.70;;;;;;;;;;5016872;28;20418;-88
2021/07/30 08:31:03;;;;;;;21.23;19.83;;;;;;;;;;5016727;28;20460;-87
2021/07/30 08:33:31;;;;;;;21.90;20.10;;;;;;;;;;5015628;28;20448;-88
2021/07/30 08:35:59;;;;;;;22.30;20.97;;;;;;;;;;5016402;28;20421;-88
2021/07/30 08:38:27;;;;;;;22.43;20.73;;;;;;;;;;5016799;28;20416;-87
2021/07/30 08:40:54;;;;;;;21.77;20.33;;;;;;;;;;5016577;28;20437;-88
2021/07/30 08:43:21;;;;;;;22.77;21.10;;;;;;;;;;5016370;28;20489;-88
2021/07/30 08:45:50;;;;;;;23.03;21.33;;;;;;;;;;5016335;28;20855;-88
2021/07/30 08:48:18;;;;;;;22.60;21.20;;;;;;;;;;5016870;28;20472;-88
2021/07/30 08:50:46;;;;;;;22.10;20.50;;;;;;;;;;5015897;28;20478;-88
2021/07/30 08:53:19;;;;;;;21.83;20.20;;;;;;;;;;5015913;28;20477;-88
2021/07/30 08:55:46;;;;;;;21.37;20.03;;;;;;;;;;5015261;28;20443;-87
2021/07/30 08:58:15;;;;;;;22.30;20.30;;;;;;;;;;5016273;28;20408;-87
2021/07/30 09:00:42;;;;;;;23.03;21.50;;;;;;;;;;5016213;28;20439;-88
2021/07/30 09:03:10;;;;;;;21.40;19.90;;;;;;;;;;5015843;28;20471;-87
2021/07/30 09:05:38;;;;;;;22.93;21.10;;;;;;;;;;5016112;28;20435;-89
2021/07/30 09:08:06;;;;;;;21.63;19.93;;;;;;;;;;5016027;28;20420;-87
2021/07/30 09:10:37;;;;;;;22.23;20.73;;;;;;;;;;5014664;28;20495;-88
2021/07/30 09:13:21;;;;;;;21.63;20.37;;;;;;;;;;5016031;28;20478;-88
2021/07/30 09:15:49;;;;;;;20.93;19.50;;;;;;;;;;5016186;28;20413;-88
2021/07/30 09:18:29;;;;;;;22.37;20.80;;;;;;;;;;5015642;28;20515;-87
2021/07/30 09:20:57;;;;;;;21.40;19.93;;;;;;;;;;5015278;28;20446;-88
2021/07/30 09:23:27;;;;;;;22.70;21.30;;;;;;;;;;5015633;28;20490;-88
2021/07/30 09:25:56;;;;;;;21.67;20.37;;;;;;;;;;5015375;28;20880;-88
2021/07/30 09:28:23;;;;;;;23.23;21.30;;;;;;;;;;5015679;28;20421;-88
2021/07/30 09:30:59;;;;;;;21.03;19.83;;;;;;;;;;5015144;28;20417;-88
2021/07/30 09:33:29;;;;;;;22.67;21.07;;;;;;;;;;5016421;28;20450;-89
2021/07/30 09:36:00;;;;;;;22.13;20.53;;;;;;;;;;5015352;28;20440;-88
2021/07/30 09:38:27;;;;;;;21.70;20.40;;;;;;;;;;5015194;28;20413;-88
2021/07/30 09:41:15;;;;;;;22.60;20.73;;;;;;;;;;5014077;28;20508;-89
2021/07/30 09:43:45;;;;;;;20.67;19.37;;;;;;;;;;5015353;28;20495;-87
2021/07/30 09:46:13;;;;;;;20.63;19.43;;;;;;;;;;5014235;28;20479;-89
2021/07/30 09:48:48;;;;;;;21.33;20.03;;;;;;;;;;5014373;28;20445;-88
2021/07/30 09:51:16;;;;;;;21.70;20.30;;;;;;;;;;5013913;28;20454;-88
2021/07/30 09:53:45;;;;;;;21.20;19.90;;;;;;;;;;5015319;28;20429;-88
2021/07/30 09:56:14;;;;;;;21.53;20.13;;;;;;;;;;5015039;28;20453;-88
2021/07/30 09:58:43;;;;;;;22.83;21.10;;;;;;;;;;5014904;28;20435;-88
2021/07/30 10:01:14;;;;;;;22.43;20.60;;;;;;;;;;5015043;28;20678;-89
2021/07/30 10:03:44;;;;;;;21.67;20.07;;;;;;;;;;5014999;28;20486;-88
2021/07/30 10:06:13;;;;;;;22.60;21.00;;;;;;;;;;5013753;28;20479;-88
2021/07/30 10:08:41;;;;;;;22.53;20.70;;;;;;;;;;5015027;28;20410;-88
2021/07/30 10:11:09;;;;;;;21.87;20.30;;;;;;;;;;5014220;28;20512;-88
2021/07/30 10:13:46;;;;;;;22.30;20.77;;;;;;;;;;5014918;28;20444;-88
2021/07/30 10:16:16;;;;;;;21.40;20.03;;;;;;;;;;5014975;28;20436;-89
2021/07/30 10:18:44;;;;;;;22.40;21.10;;;;;;;;;;5014832;28;20435;-89
2021/07/30 10:21:13;;;;;;;23.10;21.70;;;;;;;;;;5014801;28;20502;-88
2021/07/30 10:23:43;;;;;;;22.27;20.67;;;;;;;;;;5014815;28;20483;-89
2021/07/30 10:26:10;;;;;;;22.70;21.10;;;;;;;;;;5014750;28;20446;-88
2021/07/30 10:28:38;;;;;;;22.10;20.70;;;;;;;;;;5014846;28;20808;-88
2021/07/30 10:31:06;;;;;;;22.03;20.63;;;;;;;;;;5014217;28;20440;-87
2021/07/30 10:33:49;;;;;;;23.00;21.40;;;;;;;;;;5014651;28;20440;-88
2021/07/30 10:36:37;;;;;;;21.43;20.13;;;;;;;;;;5014363;28;20420;-86
2021/07/30 10:39:22;;;;;;;22.33;21.07;;;;;;;;;;5015381;28;20745;-87
2021/07/30 10:42:10;;;;;;;21.67;20.37;;;;;;;;;;5014560;28;20455;-88
2021/07/30 10:44:37;;;;;;;23.50;21.50;;;;;;;;;;5014446;28;20514;-88
2021/07/30 10:47:20;;;;;;;23.30;21.80;;;;;;;;;;5014585;28;20840;-87
2021/07/30 10:49:50;;;;;;;23.13;21.63;;;;;;;;;;5014277;28;21055;-87
2021/07/30 10:52:25;;;;;;;22.67;21.27;;;;;;;;;;5014218;28;20443;-88
2021/07/30 10:54:53;;;;;;;22.47;20.97;;;;;;;;;;5014479;28;20898;-88
2021/07/30 10:57:38;;;;;;;22.00;20.80;;;;;;;;;;5013097;28;20484;-87
2021/07/30 11:00:07;;;;;;;22.83;21.33;;;;;;;;;;5000742;28;20430;-88
2021/07/30 11:02:49;;;;;;;22.77;21.17;;;;;;;;;;5014439;28;20558;-88
2021/07/30 11:05:18;;;;;;;23.10;21.30;;;;;;;;;;5014332;28;20941;-88
2021/07/30 11:07:45;;;;;;;23.20;21.57;;;;;;;;;;5014582;28;20452;-89
2021/07/30 11:10:17;;;;;;;22.07;20.70;;;;;;;;;;5013321;28;20491;-88
2021/07/30 11:12:45;;;;;;;22.60;21.30;;;;;;;;;;5014054;28;20458;-88
2021/07/30 11:15:15;;;;;;;23.13;21.70;;;;;;;;;;5014397;28;20830;-88
2021/07/30 11:17:42;;;;;;;23.10;21.67;;;;;;;;;;5014876;28;20846;-88
2021/07/30 11:20:10;;;;;;;23.57;21.77;;;;;;;;;;5014798;28;20434;-89
2021/07/30 11:22:40;;;;;;;22.93;21.57;;;;;;;;;;5014627;28;20406;-88
2021/07/30 11:25:12;;;;;;;22.20;20.70;;;;;;;;;;5014226;28;20476;-88
2021/07/30 11:27:39;;;;;;;21.67;20.37;;;;;;;;;;5013816;28;20461;-88
2021/07/30 11:30:07;;;;;;;21.83;20.63;;;;;;;;;;5013228;28;20452;-89
2021/07/30 11:32:36;;;;;;;22.50;21.10;;;;;;;;;;5014089;28;20455;-88
2021/07/30 11:35:09;;;;;;;22.30;20.90;;;;;;;;;;5014205;28;20469;-88
2021/07/30 11:37:37;;;;;;;23.10;21.13;;;;;;;;;;5013403;28;20943;-90
2021/07/30 11:40:07;;;;;;;23.10;21.47;;;;;;;;;;4996886;28;20501;-89
2021/07/30 11:42:35;;;;;;;23.43;21.57;;;;;;;;;;5014331;28;20439;-89
2021/07/30 11:45:04;;;;;;;21.50;20.10;;;;;;;;;;5016388;28;20553;-88
2021/07/30 11:47:32;;;;;;;21.80;20.47;;;;;;;;;;5016423;28;20475;-89
2021/07/30 11:50:05;;;;;;;21.80;20.50;;;;;;;;;;5017100;28;20966;-89
2021/07/30 11:52:32;;;;;;;21.93;20.53;;;;;;;;;;5018076;28;20523;-89
2021/07/30 11:55:21;;;;;;;22.50;21.20;;;;;;;;;;5016397;28;20846;-89
2021/07/30 11:57:51;;;;;;;22.97;21.57;;;;;;;;;;5012691;28;20451;-88
2021/07/30 12:00:25;;;;;;;22.10;20.80;;;;;;;;;;5017226;28;20522;-89
2021/07/30 12:02:53;;;;;;;21.83;20.63;;;;;;;;;;5017449;28;20451;-89
2021/07/30 12:05:27;;;;;;;22.50;21.00;;;;;;;;;;5017166;28;20476;-88
2021/07/30 12:07:55;;;;;;;22.50;21.10;;;;;;;;;;5017273;28;20463;-88
2021/07/30 12:10:23;;;;;;;22.17;20.50;;;;;;;;;;5016032;28;20463;-89
2021/07/30 12:12:53;;;;;;;21.90;20.60;;;;;;;;;;5016773;28;20535;-89
2021/07/30 12:15:25;;;;;;;22.27;20.77;;;;;;;;;;5017031;28;20850;-89
2021/07/30 12:17:58;;;;;;;22.80;21.40;;;;;;;;;;5017100;28;20445;-88
2021/07/30 12:20:31;;;;;;;23.17;21.77;;;;;;;;;;5016897;28;20441;-88
2021/07/30 12:23:03;;;;;;;22.50;21.03;;;;;;;;;;5016685;28;20440;-89
2021/07/30 12:25:34;;;;;;;21.87;20.57;;;;;;;;;;5015521;28;20822;-88
2021/07/30 12:28:07;;;;;;;22.97;21.43;;;;;;;;;;5016583;28;20448;-89
2021/07/30 12:30:35;;;;;;;22.37;20.93;;;;;;;;;;5016533;28;20441;-88
2021/07/30 12:33:02;;;;;;;22.40;21.13;;;;;;;;;;5016736;28;20838;-88
2021/07/30 12:35:33;;;;;;;22.53;21.23;;;;;;;;;;5016613;28;20804;-88
2021/07/30 12:38:07;;;;;;;22.30;20.90;;;;;;;;;;5016680;28;20437;-83
2021/07/30 12:40:35;;;;;;;22.50;21.00;;;;;;;;;;5016302;28;20733;-86
2021/07/30 12:43:11;;;;;;;23.53;21.70;;;;;;;;;;5015760;28;20433;-84
2021/07/30 12:45:39;;;;;;;22.13;20.73;;;;;;;;;;5016089;28;20491;-84
2021/07/30 12:48:07;;;;;;;22.50;21.20;;;;;;;;;;5015140;28;20536;-85
2021/07/30 12:50:38;;;;;;;23.00;21.50;;;;;;;;;;5015702;28;20485;-85
2021/07/30 12:53:09;;;;;;;22.47;21.07;;;;;;;;;;5015652;28;20836;-86
2021/07/30 12:55:55;;;;;;;23.67;22.27;;;;;;;;;;5014344;28;20516;-86
2021/07/30 12:58:24;;;;;;;23.33;21.93;;;;;;;;;;5016246;28;20415;-87
2021/07/30 13:00:52;;;;;;;22.40;21.20;;;;;;;;;;5014824;28;20507;-87
2021/07/30 13:03:19;;;;;;;22.43;21.07;;;;;;;;;;5015550;28;20923;-84
2021/07/30 13:05:51;;;;;;;22.97;21.60;;;;;;;;;;5015500;28;20444;-87
2021/07/30 13:08:19;;;;;;;21.87;20.67;;;;;;;;;;5015951;28;20467;-87
2021/07/30 13:10:49;;;;;;;21.90;20.40;;;;;;;;;;5015577;28;20456;-86
2021/07/30 13:13:18;;;;;;;22.17;20.77;;;;;;;;;;5015624;28;20439;-86
2021/07/30 13:15:48;;;;;;;22.33;21.03;;;;;;;;;;5016304;28;20430;-87
2021/07/30 13:18:16;;;;;;;22.20;20.87;;;;;;;;;;5015784;28;20472;-87
2021/07/30 13:20:45;;;;;;;22.97;21.47;;;;;;;;;;5015975;28;20511;-86
2021/07/30 13:23:12;;;;;;;23.43;21.70;;;;;;;;;;5015388;28;20442;-87
2021/07/30 13:25:40;;;;;;;22.37;20.80;;;;;;;;;;5015169;28;20496;-87
2021/07/30 13:28:08;;;;;;;23.13;21.63;;;;;;;;;;5015629;28;20444;-86
2021/07/30 13:30:36;;;;;;;22.53;21.33;;;;;;;;;;5015519;28;20426;-87
2021/07/30 13:33:05;;;;;;;22.77;21.20;;;;;;;;;;5015478;28;20447;-84
2021/07/30 13:35:34;;;;;;;22.87;21.27;;;;;;;;;;5015387;28;20804;-86
2021/07/30 13:38:02;;;;;;;23.57;22.00;;;;;;;;;;5015779;28;20432;-89
2021/07/30 13:40:29;;;;;;;23.23;21.63;;;;;;;;;;5015101;28;20456;-90
2021/07/30 13:42:57;;;;;;;23.03;21.63;;;;;;;;;;5015433;28;20432;-84
2021/07/30 13:45:25;;;;;;;23.23;21.93;;;;;;;;;;5014162;28;20496;-84
2021/07/30 13:47:52;;;;;;;22.83;21.53;;;;;;;;;;5015515;28;20774;-84
2021/07/30 13:50:21;;;;;;;23.83;22.33;;;;;;;;;;5014808;28;20473;-83
2021/07/30 13:52:49;;;;;;;23.17;21.87;;;;;;;;;;5014782;28;20448;-83
2021/07/30 13:55:16;;;;;;;22.93;21.53;;;;;;;;;;5014426;28;20429;-83
2021/07/30 13:57:44;;;;;;;23.40;21.87;;;;;;;;;;5014462;28;20440;-83
2021/07/30 14:00:11;;;;;;;22.30;21.00;;;;;;;;;;5014404;28;20442;-83
2021/07/30 14:02:39;;;;;;;23.40;22.00;;;;;;;;;;5014525;28;20445;-83
2021/07/30 14:05:06;;;;;;;23.27;21.70;;;;;;;;;;5014599;28;20486;-83
2021/07/30 14:07:39;;;;;;;22.90;21.60;;;;;;;;;;5014578;28;20441;-83
2021/07/30 14:10:07;;;;;;;23.47;21.87;;;;;;;;;;5014359;28;20442;-83
2021/07/30 14:12:34;;;;;;;23.40;22.07;;;;;;;;;;5014298;28;20440;-83
2021/07/30 14:15:02;;;;;;;24.07;22.53;;;;;;;;;;5014478;28;20448;-83
2021/07/30 14:17:29;;;;;;;22.83;21.43;;;;;;;;;;5014406;28;20422;-83
2021/07/30 14:19:57;;;;;;;23.20;21.90;;;;;;;;;;5014456;28;20922;-83
2021/07/30 14:22:24;;;;;;;22.93;21.53;;;;;;;;;;5012991;28;20437;-83
2021/07/30 14:24:53;;;;;;;23.00;21.70;;;;;;;;;;5014413;28;20485;-83